sensor_id;sensor_type;location;lat;lon;timestamp;P1;durP1;ratioP1;P2;durP2;ratioP2
70457;SDS011;57919;56.194;95.716;2022-08-21T00:08:39;21.25;;;10.57;;
70457;SDS011;57919;56.194;95.716;2022-08-21T00:18:41;19.47;;;10.70;;
70457;SDS011;57919;56.194;95.716;2022-08-21T00:28:43;21.17;;;10.63;;
70457;SDS011;57919;56.194;95.716;2022-08-21T00:38:47;27.37;;;11.20;;
70457;SDS011;57919;56.194;95.716;2022-08-21T00:48:49;19.33;;;10.70;;
70457;SDS011;57919;56.194;95.716;2022-08-21T00:58:51;16.90;;;10.05;;
70457;SDS011;57919;56.194;95.716;2022-08-21T01:08:55;20.60;;;10.13;;
70457;SDS011;57919;56.194;95.716;2022-08-21T01:18:57;19.97;;;10.07;;
70457;SDS011;57919;56.194;95.716;2022-08-21T01:29:08;20.43;;;11.47;;
70457;SDS011;57919;56.194;95.716;2022-08-21T01:39:29;17.67;;;10.97;;
70457;SDS011;57919;56.194;95.716;2022-08-21T01:49:38;20.15;;;11.13;;
70457;SDS011;57919;56.194;95.716;2022-08-21T01:59:40;16.93;;;10.13;;
70457;SDS011;57919;56.194;95.716;2022-08-21T02:09:42;15.93;;;11.07;;
70457;SDS011;57919;56.194;95.716;2022-08-21T02:19:44;15.73;;;10.13;;
70457;SDS011;57919;56.194;95.716;2022-08-21T02:29:46;20.17;;;11.57;;
70457;SDS011;57919;56.194;95.716;2022-08-21T02:39:48;15.88;;;10.68;;
70457;SDS011;57919;56.194;95.716;2022-08-21T02:49:51;15.83;;;10.47;;
70457;SDS011;57919;56.194;95.716;2022-08-21T02:59:53;16.20;;;10.00;;
70457;SDS011;57919;56.194;95.716;2022-08-21T03:09:55;15.30;;;9.87;;
70457;SDS011;57919;56.194;95.716;2022-08-21T03:19:57;13.07;;;8.83;;
70457;SDS011;57919;56.194;95.716;2022-08-21T03:30:00;14.50;;;8.32;;
70457;SDS011;57919;56.194;95.716;2022-08-21T03:40:06;12.57;;;8.60;;
70457;SDS011;57919;56.194;95.716;2022-08-21T03:50:09;12.00;;;7.50;;
70457;SDS011;57919;56.194;95.716;2022-08-21T04:00:12;15.60;;;8.57;;
70457;SDS011;57919;56.194;95.716;2022-08-21T04:10:16;14.40;;;7.40;;
70457;SDS011;57919;56.194;95.716;2022-08-21T04:20:19;10.23;;;6.07;;
70457;SDS011;57919;56.194;95.716;2022-08-21T04:30:23;10.13;;;6.10;;
70457;SDS011;57919;56.194;95.716;2022-08-21T04:40:26;9.57;;;5.60;;
70457;SDS011;57919;56.194;95.716;2022-08-21T04:50:41;15.03;;;7.53;;
70457;SDS011;57919;56.194;95.716;2022-08-21T05:00:57;12.30;;;6.47;;
70457;SDS011;57919;56.194;95.716;2022-08-21T05:11:02;10.38;;;5.90;;
70457;SDS011;57919;56.194;95.716;2022-08-21T05:21:05;12.30;;;5.33;;
70457;SDS011;57919;56.194;95.716;2022-08-21T05:31:07;9.00;;;5.23;;
70457;SDS011;57919;56.194;95.716;2022-08-21T05:41:09;14.03;;;5.20;;
70457;SDS011;57919;56.194;95.716;2022-08-21T05:51:13;10.17;;;6.73;;
70457;SDS011;57919;56.194;95.716;2022-08-21T06:01:16;15.65;;;6.28;;
70457;SDS011;57919;56.194;95.716;2022-08-21T06:11:18;12.60;;;6.57;;
70457;SDS011;57919;56.194;95.716;2022-08-21T06:21:20;11.90;;;6.87;;
70457;SDS011;57919;56.194;95.716;2022-08-21T06:31:22;13.80;;;7.90;;
70457;SDS011;57919;56.194;95.716;2022-08-21T06:41:26;13.93;;;7.50;;
70457;SDS011;57919;56.194;95.716;2022-08-21T06:51:31;9.32;;;5.22;;
70457;SDS011;57919;56.194;95.716;2022-08-21T07:01:33;10.27;;;5.63;;
70457;SDS011;57919;56.194;95.716;2022-08-21T07:11:35;10.57;;;4.83;;
70457;SDS011;57919;56.194;95.716;2022-08-21T07:21:39;9.97;;;5.57;;
70457;SDS011;57919;56.194;95.716;2022-08-21T07:31:41;9.87;;;5.50;;
70457;SDS011;57919;56.194;95.716;2022-08-21T07:41:43;11.15;;;5.90;;
70457;SDS011;57919;56.194;95.716;2022-08-21T07:51:45;9.40;;;4.23;;
70457;SDS011;57919;56.194;95.716;2022-08-21T08:01:47;8.77;;;4.20;;
70457;SDS011;57919;56.194;95.716;2022-08-21T08:11:49;9.43;;;4.50;;
70457;SDS011;57919;56.194;95.716;2022-08-21T08:21:51;7.97;;;4.63;;
70457;SDS011;57919;56.194;95.716;2022-08-21T08:31:54;8.63;;;3.85;;
70457;SDS011;57919;56.194;95.716;2022-08-21T08:42:38;12.70;;;4.40;;
70457;SDS011;57919;56.194;95.716;2022-08-21T08:52:28;11.10;;;3.87;;
70457;SDS011;57919;56.194;95.716;2022-08-21T09:02:32;9.20;;;3.83;;
70457;SDS011;57919;56.194;95.716;2022-08-21T09:12:38;9.70;;;4.00;;
70457;SDS011;57919;56.194;95.716;2022-08-21T09:22:47;6.90;;;3.17;;
70457;SDS011;57919;56.194;95.716;2022-08-21T09:33:11;8.97;;;4.60;;
70457;SDS011;57919;56.194;95.716;2022-08-21T09:53:22;8.20;;;4.13;;
70457;SDS011;57919;56.194;95.716;2022-08-21T10:03:24;11.03;;;4.67;;
70457;SDS011;57919;56.194;95.716;2022-08-21T10:24:06;9.20;;;4.40;;
70457;SDS011;57919;56.194;95.716;2022-08-21T10:45:09;13.13;;;7.97;;
70457;SDS011;57919;56.194;95.716;2022-08-21T10:55:23;10.07;;;5.20;;
70457;SDS011;57919;56.194;95.716;2022-08-21T11:05:51;10.18;;;5.80;;
70457;SDS011;57919;56.194;95.716;2022-08-21T11:26:23;9.40;;;6.03;;
70457;SDS011;57919;56.194;95.716;2022-08-21T11:56:59;14.10;;;8.20;;
70457;SDS011;57919;56.194;95.716;2022-08-21T12:07:14;14.87;;;9.13;;
70457;SDS011;57919;56.194;95.716;2022-08-21T12:17:21;13.80;;;8.87;;
70457;SDS011;57919;56.194;95.716;2022-08-21T12:58:21;40.07;;;20.50;;
70457;SDS011;57919;56.194;95.716;2022-08-21T13:08:25;28.17;;;18.77;;
70457;SDS011;57919;56.194;95.716;2022-08-21T13:18:29;33.37;;;23.00;;
70457;SDS011;57919;56.194;95.716;2022-08-21T13:28:34;51.50;;;32.33;;
70457;SDS011;57919;56.194;95.716;2022-08-21T13:38:39;64.15;;;40.50;;
70457;SDS011;57919;56.194;95.716;2022-08-21T13:48:42;188.17;;;105.50;;
70457;SDS011;57919;56.194;95.716;2022-08-21T13:58:45;51.97;;;37.40;;
70457;SDS011;57919;56.194;95.716;2022-08-21T14:09:03;16.33;;;10.73;;
70457;SDS011;57919;56.194;95.716;2022-08-21T14:19:18;14.30;;;7.30;;
70457;SDS011;57919;56.194;95.716;2022-08-21T14:29:26;19.00;;;13.70;;
70457;SDS011;57919;56.194;95.716;2022-08-21T14:39:29;14.07;;;7.70;;
70457;SDS011;57919;56.194;95.716;2022-08-21T14:49:31;17.37;;;7.37;;
70457;SDS011;57919;56.194;95.716;2022-08-21T14:59:33;19.53;;;6.40;;
70457;SDS011;57919;56.194;95.716;2022-08-21T15:09:37;13.13;;;6.20;;
70457;SDS011;57919;56.194;95.716;2022-08-21T15:19:39;12.25;;;6.20;;
70457;SDS011;57919;56.194;95.716;2022-08-21T15:29:42;12.73;;;6.57;;
70457;SDS011;57919;56.194;95.716;2022-08-21T15:39:44;14.17;;;5.67;;
70457;SDS011;57919;56.194;95.716;2022-08-21T15:49:46;10.80;;;5.00;;
70457;SDS011;57919;56.194;95.716;2022-08-21T15:59:50;9.70;;;4.87;;
70457;SDS011;57919;56.194;95.716;2022-08-21T16:09:59;9.80;;;4.80;;
70457;SDS011;57919;56.194;95.716;2022-08-21T16:20:01;9.73;;;5.20;;
70457;SDS011;57919;56.194;95.716;2022-08-21T16:30:07;13.87;;;7.53;;
70457;SDS011;57919;56.194;95.716;2022-08-21T16:40:10;11.20;;;5.10;;
70457;SDS011;57919;56.194;95.716;2022-08-21T16:50:14;11.57;;;6.23;;
70457;SDS011;57919;56.194;95.716;2022-08-21T17:00:18;15.38;;;9.48;;
70457;SDS011;57919;56.194;95.716;2022-08-21T17:10:20;15.90;;;12.37;;
70457;SDS011;57919;56.194;95.716;2022-08-21T17:20:22;13.10;;;8.10;;
70457;SDS011;57919;56.194;95.716;2022-08-21T17:30:26;8.63;;;4.20;;
70457;SDS011;57919;56.194;95.716;2022-08-21T17:40:28;12.03;;;4.80;;
70457;SDS011;57919;56.194;95.716;2022-08-21T17:50:30;13.82;;;5.45;;
70457;SDS011;57919;56.194;95.716;2022-08-21T18:00:33;12.60;;;6.13;;
70457;SDS011;57919;56.194;95.716;2022-08-21T18:10:37;11.40;;;5.77;;
70457;SDS011;57919;56.194;95.716;2022-08-21T18:20:41;11.80;;;5.73;;
70457;SDS011;57919;56.194;95.716;2022-08-21T18:30:43;10.27;;;5.70;;
70457;SDS011;57919;56.194;95.716;2022-08-21T18:40:47;12.38;;;6.65;;
70457;SDS011;57919;56.194;95.716;2022-08-21T18:50:51;18.60;;;7.23;;
70457;SDS011;57919;56.194;95.716;2022-08-21T19:00:53;9.87;;;5.97;;
70457;SDS011;57919;56.194;95.716;2022-08-21T19:10:56;10.80;;;5.53;;
70457;SDS011;57919;56.194;95.716;2022-08-21T19:21:01;10.57;;;5.80;;
70457;SDS011;57919;56.194;95.716;2022-08-21T19:31:23;11.18;;;5.82;;
70457;SDS011;57919;56.194;95.716;2022-08-21T19:41:30;10.17;;;5.13;;
70457;SDS011;57919;56.194;95.716;2022-08-21T19:51:33;9.03;;;5.00;;
70457;SDS011;57919;56.194;95.716;2022-08-21T20:01:36;9.93;;;4.77;;
70457;SDS011;57919;56.194;95.716;2022-08-21T20:11:39;8.27;;;4.03;;
70457;SDS011;57919;56.194;95.716;2022-08-21T20:21:44;10.75;;;4.80;;
70457;SDS011;57919;56.194;95.716;2022-08-21T20:31:46;8.87;;;4.63;;
70457;SDS011;57919;56.194;95.716;2022-08-21T20:41:48;8.37;;;4.10;;
70457;SDS011;57919;56.194;95.716;2022-08-21T20:51:52;7.90;;;3.37;;
70457;SDS011;57919;56.194;95.716;2022-08-21T21:01:55;7.57;;;3.77;;
70457;SDS011;57919;56.194;95.716;2022-08-21T21:12:08;9.48;;;3.80;;
70457;SDS011;57919;56.194;95.716;2022-08-21T21:22:30;8.17;;;3.70;;
70457;SDS011;57919;56.194;95.716;2022-08-21T21:32:37;8.13;;;3.43;;
70457;SDS011;57919;56.194;95.716;2022-08-21T21:53:11;5.63;;;2.33;;
70457;SDS011;57919;56.194;95.716;2022-08-21T22:03:29;7.20;;;2.38;;
70457;SDS011;57919;56.194;95.716;2022-08-21T22:13:54;5.07;;;2.07;;
70457;SDS011;57919;56.194;95.716;2022-08-21T22:23:59;5.07;;;2.17;;
70457;SDS011;57919;56.194;95.716;2022-08-21T22:34:13;8.07;;;2.10;;
70457;SDS011;57919;56.194;95.716;2022-08-21T22:44:20;5.60;;;2.20;;
70457;SDS011;57919;56.194;95.716;2022-08-21T22:54:29;7.68;;;2.83;;
70457;SDS011;57919;56.194;95.716;2022-08-21T23:04:44;7.20;;;3.00;;
70457;SDS011;57919;56.194;95.716;2022-08-21T23:14:48;7.03;;;2.87;;
70457;SDS011;57919;56.194;95.716;2022-08-21T23:24:59;9.67;;;2.83;;
70457;SDS011;57919;56.194;95.716;2022-08-21T23:56:19;8.53;;;3.23;;
